Sainte-Anne-Des-Monts, Canada
Current Conditions -  °F | °C
As of 1:00 PM on Thursday 23 Oct 2014 (Local Time) from CYZV Reporting Station
Few Clouds Few Clouds  
Wind Chill: 40°   Ceiling: Unl
Heat Index: 43°   Visibility: 30mi
Dew Point: 30°   Wind: 5mph
Humidity: 61%   Direction: 150°SSE
Pressure: 30.31"   Gusts: NA
Location:  49.12°N, 66.48°W
Report Text: CYZV 231700Z 15004KT 110V180 30SM FEW250 06/M01 A3031 RMK CI1 CI TR SLP266
Loading
Personal Weather Stations






























Interactive Weather Map
Tropical Storm Tracking
New forecast layout! Learn more

10-Day Weather Forecast

Advertisements
Track Severe Weather on mobile